Florence, Indiana
Current Conditions -  °F | °C
As of 4:52 AM on Saturday 20 Dec 2014 (Local Time) from KCVG Reporting Station
Overcast Overcast  
Wind Chill: -1°   Ceiling: 2100
Heat Index: -1°   Visibility: 10mi
Dew Point: -6°   Wind: 0mph
Humidity: 69%   Direction: NA
Pressure: 30.24"   Gusts: NA
Location:  38.78°N, 84.92°W
Report Text: KCVG 200952Z 00000KT 10SM OVC021 M01/M06 A3024 RMK AO2 SLP249 T10111061
Loading
Personal Weather Stations






























Interactive Weather Map New forecast layout! Learn more

10-Day Weather Forecast

Advertisements
Track Severe Weather on mobile